sensor_id;sensor_type;location;lat;lon;timestamp;pressure;altitude;pressure_sealevel;temperature;humidity
59831;BME280;45711;50.108;13.712;2022-12-01T00:00:29;98610.09;;;-0.32;94.83
59831;BME280;45711;50.108;13.712;2022-12-01T00:12:34;98599.78;;;-0.33;96.25
59831;BME280;45711;50.108;13.712;2022-12-01T00:15:00;98597.19;;;-0.27;97.49
59831;BME280;45711;50.108;13.712;2022-12-01T00:17:27;98590.16;;;-0.19;97.76
59831;BME280;45711;50.108;13.712;2022-12-01T00:19:53;98590.78;;;-0.17;97.50
59831;BME280;45711;50.108;13.712;2022-12-01T00:22:21;98588.56;;;-0.14;97.65
59831;BME280;45711;50.108;13.712;2022-12-01T00:24:47;98591.53;;;-0.23;97.36
59831;BME280;45711;50.108;13.712;2022-12-01T00:27:12;98582.78;;;-0.31;97.23
59831;BME280;45711;50.108;13.712;2022-12-01T00:29:39;98587.31;;;-0.18;98.28
59831;BME280;45711;50.108;13.712;2022-12-01T00:32:05;98583.88;;;-0.18;97.27
59831;BME280;45711;50.108;13.712;2022-12-01T00:34:33;98581.91;;;-0.16;97.39
59831;BME280;45711;50.108;13.712;2022-12-01T00:36:59;98586.56;;;-0.12;97.49
59831;BME280;45711;50.108;13.712;2022-12-01T00:39:26;98590.47;;;-0.01;97.70
59831;BME280;45711;50.108;13.712;2022-12-01T00:41:52;98588.06;;;0.04;97.24
59831;BME280;45711;50.108;13.712;2022-12-01T00:44:18;98585.84;;;0.01;97.45
59831;BME280;45711;50.108;13.712;2022-12-01T00:46:46;98587.69;;;0.07;97.87
59831;BME280;45711;50.108;13.712;2022-12-01T00:49:12;98588.13;;;0.11;97.07
59831;BME280;45711;50.108;13.712;2022-12-01T00:51:38;98576.56;;;0.05;97.96
59831;BME280;45711;50.108;13.712;2022-12-01T00:54:08;98584.69;;;0.10;97.77
59831;BME280;45711;50.108;13.712;2022-12-01T00:56:37;98583.22;;;0.08;97.41
59831;BME280;45711;50.108;13.712;2022-12-01T00:59:08;98584.81;;;0.02;97.00
59831;BME280;45711;50.108;13.712;2022-12-01T01:01:46;98579.41;;;0.10;97.84
59831;BME280;45711;50.108;13.712;2022-12-01T01:04:19;98576.56;;;0.12;97.27
59831;BME280;45711;50.108;13.712;2022-12-01T01:06:47;98582.22;;;0.09;95.95
59831;BME280;45711;50.108;13.712;2022-12-01T01:09:13;98582.19;;;0.02;96.46
59831;BME280;45711;50.108;13.712;2022-12-01T01:11:43;98586.00;;;-0.01;97.17
59831;BME280;45711;50.108;13.712;2022-12-01T01:14:08;98577.13;;;0.01;96.55
59831;BME280;45711;50.108;13.712;2022-12-01T01:16:34;98578.97;;;0.00;96.77
59831;BME280;45711;50.108;13.712;2022-12-01T01:19:00;98586.28;;;0.05;96.69
59831;BME280;45711;50.108;13.712;2022-12-01T01:21:26;98574.69;;;-0.01;96.16
59831;BME280;45711;50.108;13.712;2022-12-01T01:23:53;98581.16;;;-0.04;96.39
59831;BME280;45711;50.108;13.712;2022-12-01T01:26:20;98578.09;;;-0.07;96.28
59831;BME280;45711;50.108;13.712;2022-12-01T01:28:48;98581.09;;;-0.10;97.12
59831;BME280;45711;50.108;13.712;2022-12-01T01:31:17;98580.34;;;-0.04;97.24
59831;BME280;45711;50.108;13.712;2022-12-01T01:33:43;98579.94;;;-0.01;96.92
59831;BME280;45711;50.108;13.712;2022-12-01T01:36:09;98579.72;;;-0.06;96.40
59831;BME280;45711;50.108;13.712;2022-12-01T01:38:35;98579.50;;;-0.05;97.83
59831;BME280;45711;50.108;13.712;2022-12-01T01:41:01;98577.31;;;-0.01;97.57
59831;BME280;45711;50.108;13.712;2022-12-01T01:43:40;98587.69;;;0.07;96.45
59831;BME280;45711;50.108;13.712;2022-12-01T01:46:09;98582.00;;;0.04;96.92
59831;BME280;45711;50.108;13.712;2022-12-01T01:48:37;98580.44;;;0.09;97.92
59831;BME280;45711;50.108;13.712;2022-12-01T01:51:04;98580.38;;;0.03;96.81
59831;BME280;45711;50.108;13.712;2022-12-01T01:53:30;98578.59;;;0.10;98.33
59831;BME280;45711;50.108;13.712;2022-12-01T01:55:56;98571.50;;;0.10;98.34
59831;BME280;45711;50.108;13.712;2022-12-01T01:58:22;98577.59;;;0.11;97.67
59831;BME280;45711;50.108;13.712;2022-12-01T02:00:48;98576.41;;;0.20;97.44
59831;BME280;45711;50.108;13.712;2022-12-01T02:03:17;98589.97;;;0.17;97.10
59831;BME280;45711;50.108;13.712;2022-12-01T02:05:43;98579.84;;;0.20;98.17
59831;BME280;45711;50.108;13.712;2022-12-01T02:08:10;98578.03;;;0.21;97.84
59831;BME280;45711;50.108;13.712;2022-12-01T02:10:45;98574.91;;;0.04;98.05
59831;BME280;45711;50.108;13.712;2022-12-01T02:13:19;98573.91;;;0.05;97.73
59831;BME280;45711;50.108;13.712;2022-12-01T02:15:55;98574.31;;;0.02;98.14
59831;BME280;45711;50.108;13.712;2022-12-01T02:18:32;98575.97;;;0.10;98.51
59831;BME280;45711;50.108;13.712;2022-12-01T02:27:10;98579.59;;;0.09;97.50
59831;BME280;45711;50.108;13.712;2022-12-01T02:30:08;98579.84;;;0.14;97.26
59831;BME280;45711;50.108;13.712;2022-12-01T02:32:46;98581.03;;;0.11;96.64
59831;BME280;45711;50.108;13.712;2022-12-01T02:35:17;98574.50;;;0.01;97.76
59831;BME280;45711;50.108;13.712;2022-12-01T02:37:48;98572.69;;;0.01;97.96
59831;BME280;45711;50.108;13.712;2022-12-01T02:40:24;98563.19;;;0.07;98.76
59831;BME280;45711;50.108;13.712;2022-12-01T02:42:58;98578.97;;;0.00;98.51
59831;BME280;45711;50.108;13.712;2022-12-01T02:45:35;98576.16;;;0.08;97.96
59831;BME280;45711;50.108;13.712;2022-12-01T02:48:08;98579.41;;;0.10;98.17
59831;BME280;45711;50.108;13.712;2022-12-01T02:50:37;98581.03;;;0.11;98.69
59831;BME280;45711;50.108;13.712;2022-12-01T02:53:05;98580.00;;;0.12;98.92
59831;BME280;45711;50.108;13.712;2022-12-01T02:55:34;98573.75;;;0.13;98.92
59831;BME280;45711;50.108;13.712;2022-12-01T02:58:00;98575.38;;;0.14;98.90
59831;BME280;45711;50.108;13.712;2022-12-01T03:00:32;98566.47;;;0.15;98.98
59831;BME280;45711;50.108;13.712;2022-12-01T03:03:21;98572.75;;;0.21;98.53
59831;BME280;45711;50.108;13.712;2022-12-01T03:06:00;98573.19;;;0.24;97.88
59831;BME280;45711;50.108;13.712;2022-12-01T03:08:40;98577.84;;;0.22;98.88
59831;BME280;45711;50.108;13.712;2022-12-01T03:11:19;98574.44;;;0.29;97.60
59831;BME280;45711;50.108;13.712;2022-12-01T03:14:03;98575.22;;;0.22;97.95
59831;BME280;45711;50.108;13.712;2022-12-01T03:16:43;98570.72;;;0.16;98.71
59831;BME280;45711;50.108;13.712;2022-12-01T03:19:19;98564.66;;;0.16;98.15
59831;BME280;45711;50.108;13.712;2022-12-01T03:21:54;98569.97;;;0.22;98.71
59831;BME280;45711;50.108;13.712;2022-12-01T03:24:25;98577.22;;;0.20;98.41
59831;BME280;45711;50.108;13.712;2022-12-01T03:27:05;98563.28;;;0.27;98.24
59831;BME280;45711;50.108;13.712;2022-12-01T03:29:34;98558.63;;;0.22;97.64
59831;BME280;45711;50.108;13.712;2022-12-01T03:32:06;98567.06;;;0.17;97.73
59831;BME280;45711;50.108;13.712;2022-12-01T03:34:38;98566.47;;;0.15;98.54
59831;BME280;45711;50.108;13.712;2022-12-01T03:37:09;98565.50;;;0.23;98.62
59831;BME280;45711;50.108;13.712;2022-12-01T03:39:38;98572.00;;;0.27;98.00
59831;BME280;45711;50.108;13.712;2022-12-01T03:42:11;98572.81;;;0.28;97.85
59831;BME280;45711;50.108;13.712;2022-12-01T03:44:42;98570.56;;;0.24;98.49
59831;BME280;45711;50.108;13.712;2022-12-01T03:47:09;98565.94;;;0.27;99.06
59831;BME280;45711;50.108;13.712;2022-12-01T03:49:39;98569.72;;;0.17;98.81
59831;BME280;45711;50.108;13.712;2022-12-01T03:52:12;98568.06;;;0.10;98.66
59831;BME280;45711;50.108;13.712;2022-12-01T03:54:45;98563.78;;;0.02;98.86
59831;BME280;45711;50.108;13.712;2022-12-01T03:57:19;98567.00;;;0.04;99.15
59831;BME280;45711;50.108;13.712;2022-12-01T03:59:46;98563.31;;;-0.08;99.10
59831;BME280;45711;50.108;13.712;2022-12-01T04:02:12;98572.63;;;-0.06;99.64
59831;BME280;45711;50.108;13.712;2022-12-01T04:04:39;98561.31;;;-0.06;99.33
59831;BME280;45711;50.108;13.712;2022-12-01T04:07:05;98559.69;;;-0.07;99.03
59831;BME280;45711;50.108;13.712;2022-12-01T04:09:31;98559.69;;;-0.07;99.02
59831;BME280;45711;50.108;13.712;2022-12-01T04:11:56;98559.88;;;-0.09;99.18
59831;BME280;45711;50.108;13.712;2022-12-01T04:14:40;98567.56;;;-0.07;98.91
59831;BME280;45711;50.108;13.712;2022-12-01T04:17:06;98564.50;;;-0.11;99.23
59831;BME280;45711;50.108;13.712;2022-12-01T04:19:31;98567.16;;;-0.11;98.83
59831;BME280;45711;50.108;13.712;2022-12-01T04:21:58;98571.59;;;-0.11;98.85
59831;BME280;45711;50.108;13.712;2022-12-01T04:24:24;98572.03;;;-0.01;99.40
59831;BME280;45711;50.108;13.712;2022-12-01T04:26:50;98566.56;;;-0.06;98.92
59831;BME280;45711;50.108;13.712;2022-12-01T04:29:15;98559.91;;;-0.02;98.90
59831;BME280;45711;50.108;13.712;2022-12-01T04:31:41;98572.03;;;-0.01;98.83
59831;BME280;45711;50.108;13.712;2022-12-01T04:34:07;98574.53;;;0.07;99.38
59831;BME280;45711;50.108;13.712;2022-12-01T04:36:34;98565.22;;;0.11;99.18
59831;BME280;45711;50.108;13.712;2022-12-01T04:39:02;98560.94;;;0.04;99.10
59831;BME280;45711;50.108;13.712;2022-12-01T04:41:28;98563.78;;;0.09;99.01
59831;BME280;45711;50.108;13.712;2022-12-01T04:43:54;98566.47;;;0.15;99.10
59831;BME280;45711;50.108;13.712;2022-12-01T04:46:20;98565.50;;;0.23;99.45
59831;BME280;45711;50.108;13.712;2022-12-01T04:48:46;98570.78;;;0.30;99.32
59831;BME280;45711;50.108;13.712;2022-12-01T04:51:12;98561.91;;;0.31;99.37
59831;BME280;45711;50.108;13.712;2022-12-01T04:53:37;98561.91;;;0.31;99.52
59831;BME280;45711;50.108;13.712;2022-12-01T04:56:05;98566.75;;;0.34;99.35
59831;BME280;45711;50.108;13.712;2022-12-01T04:58:32;98571.03;;;0.41;99.18
59831;BME280;45711;50.108;13.712;2022-12-01T05:01:00;98564.75;;;0.42;99.10
59831;BME280;45711;50.108;13.712;2022-12-01T05:03:26;98563.19;;;0.48;99.04
59831;BME280;45711;50.108;13.712;2022-12-01T05:06:00;98565.81;;;0.48;98.71
59831;BME280;45711;50.108;13.712;2022-12-01T05:08:25;98571.03;;;0.41;99.29
59831;BME280;45711;50.108;13.712;2022-12-01T05:10:54;98570.81;;;0.43;98.79
59831;BME280;45711;50.108;13.712;2022-12-01T05:13:21;98575.72;;;0.46;99.06
59831;BME280;45711;50.108;13.712;2022-12-01T05:15:46;98580.59;;;0.49;98.98
59831;BME280;45711;50.108;13.712;2022-12-01T05:18:12;98587.88;;;0.47;98.86
59831;BME280;45711;50.108;13.712;2022-12-01T05:20:38;98584.47;;;0.53;99.20
59831;BME280;45711;50.108;13.712;2022-12-01T05:23:23;98579.56;;;0.50;98.86
59831;BME280;45711;50.108;13.712;2022-12-01T05:25:49;98585.44;;;0.45;99.18
59831;BME280;45711;50.108;13.712;2022-12-01T05:28:15;98589.44;;;0.35;98.81
59831;BME280;45711;50.108;13.712;2022-12-01T05:30:42;98589.91;;;0.45;98.79
59831;BME280;45711;50.108;13.712;2022-12-01T05:33:07;98586.66;;;0.49;98.72
59831;BME280;45711;50.108;13.712;2022-12-01T05:35:33;98584.25;;;0.48;99.59
59831;BME280;45711;50.108;13.712;2022-12-01T05:37:59;98595.38;;;0.50;98.97
59831;BME280;45711;50.108;13.712;2022-12-01T05:40:24;98584.63;;;0.52;98.91
59831;BME280;45711;50.108;13.712;2022-12-01T05:42:52;98589.47;;;0.41;99.14
59831;BME280;45711;50.108;13.712;2022-12-01T05:45:18;98591.25;;;0.34;99.07
59831;BME280;45711;50.108;13.712;2022-12-01T05:47:47;98586.03;;;0.41;99.75
59831;BME280;45711;50.108;13.712;2022-12-01T05:50:13;98584.59;;;0.38;99.63
59831;BME280;45711;50.108;13.712;2022-12-01T05:52:39;98589.91;;;0.45;99.79
59831;BME280;45711;50.108;13.712;2022-12-01T05:55:05;98579.63;;;0.57;99.53
59831;BME280;45711;50.108;13.712;2022-12-01T05:57:32;98575.34;;;0.56;99.44
59831;BME280;45711;50.108;13.712;2022-12-01T05:59:58;98572.09;;;0.60;99.42
59831;BME280;45711;50.108;13.712;2022-12-01T06:02:24;98574.13;;;0.58;99.32
59831;BME280;45711;50.108;13.712;2022-12-01T06:04:54;98584.25;;;0.48;98.85
59831;BME280;45711;50.108;13.712;2022-12-01T06:07:19;98578.78;;;0.56;99.33
59831;BME280;45711;50.108;13.712;2022-12-01T06:09:46;98580.81;;;0.61;99.65
59831;BME280;45711;50.108;13.712;2022-12-01T06:12:12;98578.59;;;0.58;99.46
59831;BME280;45711;50.108;13.712;2022-12-01T06:14:41;98582.25;;;0.63;99.18
59831;BME280;45711;50.108;13.712;2022-12-01T06:17:06;98587.13;;;0.66;99.40
59831;BME280;45711;50.108;13.712;2022-12-01T06:19:32;98589.97;;;0.71;99.51
59831;BME280;45711;50.108;13.712;2022-12-01T06:21:59;98590.56;;;0.67;99.29
59831;BME280;45711;50.108;13.712;2022-12-01T06:24:25;98591.38;;;0.67;98.81
59831;BME280;45711;50.108;13.712;2022-12-01T06:26:51;98586.13;;;0.67;98.73
59831;BME280;45711;50.108;13.712;2022-12-01T06:29:16;98591.59;;;0.72;99.04
59831;BME280;45711;50.108;13.712;2022-12-01T06:31:42;98596.44;;;0.69;99.05
59831;BME280;45711;50.108;13.712;2022-12-01T06:34:09;98595.03;;;0.73;98.64
59831;BME280;45711;50.108;13.712;2022-12-01T06:36:34;98594.84;;;0.68;98.78
59831;BME280;45711;50.108;13.712;2022-12-01T06:39:05;98601.31;;;0.65;99.24
59831;BME280;45711;50.108;13.712;2022-12-01T06:41:30;98603.97;;;0.72;99.28
59831;BME280;45711;50.108;13.712;2022-12-01T06:43:56;98600.53;;;0.71;98.74
59831;BME280;45711;50.108;13.712;2022-12-01T06:46:22;98602.34;;;0.78;98.99
59831;BME280;45711;50.108;13.712;2022-12-01T06:48:48;98599.53;;;0.79;99.28
59831;BME280;45711;50.108;13.712;2022-12-01T06:51:15;98599.28;;;0.74;99.37
59831;BME280;45711;50.108;13.712;2022-12-01T06:53:43;98593.22;;;0.67;99.20
59831;BME280;45711;50.108;13.712;2022-12-01T06:56:18;98596.88;;;0.72;100.00
59831;BME280;45711;50.108;13.712;2022-12-01T06:58:46;98600.13;;;0.81;99.17
59831;BME280;45711;50.108;13.712;2022-12-01T07:01:11;98601.56;;;0.84;98.42
59831;BME280;45711;50.108;13.712;2022-12-01T07:03:38;98604.22;;;0.84;98.07
59831;BME280;45711;50.108;13.712;2022-12-01T07:06:06;98601.38;;;0.79;98.99
59831;BME280;45711;50.108;13.712;2022-12-01T07:08:32;98611.28;;;0.77;98.95
59831;BME280;45711;50.108;13.712;2022-12-01T07:11:02;98606.22;;;0.82;99.00
59831;BME280;45711;50.108;13.712;2022-12-01T07:13:30;98604.81;;;0.86;98.48
59831;BME280;45711;50.108;13.712;2022-12-01T07:15:56;98609.69;;;0.89;98.52
59831;BME280;45711;50.108;13.712;2022-12-01T07:18:21;98612.31;;;0.89;98.02
59831;BME280;45711;50.108;13.712;2022-12-01T07:20:47;98615.38;;;0.92;98.44
59831;BME280;45711;50.108;13.712;2022-12-01T07:23:13;98618.81;;;0.93;98.10
59831;BME280;45711;50.108;13.712;2022-12-01T07:25:39;98618.44;;;0.96;97.73
59831;BME280;45711;50.108;13.712;2022-12-01T07:28:04;98625.31;;;0.97;97.60
59831;BME280;45711;50.108;13.712;2022-12-01T07:30:32;98625.28;;;0.90;97.56
59831;BME280;45711;50.108;13.712;2022-12-01T07:33:05;98621.47;;;0.93;97.28
59831;BME280;45711;50.108;13.712;2022-12-01T07:35:43;98624.09;;;0.93;98.59
59831;BME280;45711;50.108;13.712;2022-12-01T07:38:09;98627.75;;;0.92;98.02
59831;BME280;45711;50.108;13.712;2022-12-01T07:40:37;98626.94;;;0.98;98.32
59831;BME280;45711;50.108;13.712;2022-12-01T07:43:03;98628.16;;;1.02;98.76
59831;BME280;45711;50.108;13.712;2022-12-01T07:45:36;98635.06;;;1.03;98.61
59831;BME280;45711;50.108;13.712;2022-12-01T07:48:01;98627.31;;;0.95;98.18
59831;BME280;45711;50.108;13.712;2022-12-01T07:50:27;98629.59;;;1.05;97.83
59831;BME280;45711;50.108;13.712;2022-12-01T07:52:53;98641.75;;;1.12;98.50
59831;BME280;45711;50.108;13.712;2022-12-01T07:55:19;98633.69;;;1.14;98.01
59831;BME280;45711;50.108;13.712;2022-12-01T07:57:51;98629.63;;;1.24;98.30
59831;BME280;45711;50.108;13.712;2022-12-01T08:00:18;98629.03;;;1.22;98.14
59831;BME280;45711;50.108;13.712;2022-12-01T08:02:49;98636.16;;;1.35;97.75
59831;BME280;45711;50.108;13.712;2022-12-01T08:05:15;98633.91;;;1.39;96.75
59831;BME280;45711;50.108;13.712;2022-12-01T08:07:48;98637.75;;;1.36;97.13
59831;BME280;45711;50.108;13.712;2022-12-01T08:10:20;98638.97;;;1.34;96.34
59831;BME280;45711;50.108;13.712;2022-12-01T08:12:58;98640.81;;;1.46;97.26
59831;BME280;45711;50.108;13.712;2022-12-01T08:15:34;98637.97;;;1.68;97.13
59831;BME280;45711;50.108;13.712;2022-12-01T08:18:02;98632.31;;;1.58;95.97
59831;BME280;45711;50.108;13.712;2022-12-01T08:20:30;98626.22;;;1.57;96.48
59831;BME280;45711;50.108;13.712;2022-12-01T08:22:59;98633.09;;;1.51;96.44
59831;BME280;45711;50.108;13.712;2022-12-01T08:25:25;98639.59;;;1.56;96.95
59831;BME280;45711;50.108;13.712;2022-12-01T08:27:50;98635.13;;;1.49;96.48
59831;BME280;45711;50.108;13.712;2022-12-01T08:30:16;98641.03;;;1.58;96.05
59831;BME280;45711;50.108;13.712;2022-12-01T08:32:42;98653.22;;;1.66;95.77
59831;BME280;45711;50.108;13.712;2022-12-01T08:35:09;98652.38;;;1.65;94.83
59831;BME280;45711;50.108;13.712;2022-12-01T08:37:35;98644.06;;;1.62;95.29
59831;BME280;45711;50.108;13.712;2022-12-01T08:40:03;98635.75;;;1.58;96.09
59831;BME280;45711;50.108;13.712;2022-12-01T08:42:29;98647.31;;;1.57;95.96
59831;BME280;45711;50.108;13.712;2022-12-01T08:44:55;98647.31;;;1.77;95.99
59831;BME280;45711;50.108;13.712;2022-12-01T08:47:21;98648.31;;;1.76;96.01
59831;BME280;45711;50.108;13.712;2022-12-01T08:49:46;98646.09;;;1.73;95.88
59831;BME280;45711;50.108;13.712;2022-12-01T08:52:13;98649.34;;;1.82;96.35
59831;BME280;45711;50.108;13.712;2022-12-01T08:54:39;98646.50;;;1.90;96.12
59831;BME280;45711;50.108;13.712;2022-12-01T08:57:05;98652.38;;;1.98;95.71
59831;BME280;45711;50.108;13.712;2022-12-01T08:59:33;98653.78;;;1.94;94.26
59831;BME280;45711;50.108;13.712;2022-12-01T09:01:59;98653.81;;;1.88;93.85
59831;BME280;45711;50.108;13.712;2022-12-01T09:04:26;98646.28;;;1.85;94.51
59831;BME280;45711;50.108;13.712;2022-12-01T09:06:54;98650.53;;;2.06;94.80
59831;BME280;45711;50.108;13.712;2022-12-01T09:09:23;98651.16;;;2.14;94.21
59831;BME280;45711;50.108;13.712;2022-12-01T09:11:49;98649.78;;;2.63;94.48
59831;BME280;45711;50.108;13.712;2022-12-01T09:14:17;98651.13;;;2.28;92.96
59831;BME280;45711;50.108;13.712;2022-12-01T09:16:45;98652.88;;;2.47;93.05
59831;BME280;45711;50.108;13.712;2022-12-01T09:19:11;98659.06;;;2.14;93.16
59831;BME280;45711;50.108;13.712;2022-12-01T09:21:37;98644.66;;;2.04;93.87
59831;BME280;45711;50.108;13.712;2022-12-01T09:24:04;98654.59;;;2.01;94.12
59831;BME280;45711;50.108;13.712;2022-12-01T09:26:32;98648.53;;;2.01;93.23
59831;BME280;45711;50.108;13.712;2022-12-01T09:29:01;98651.78;;;1.96;94.63
59831;BME280;45711;50.108;13.712;2022-12-01T09:31:31;98645.25;;;2.06;95.05
59831;BME280;45711;50.108;13.712;2022-12-01T09:33:59;98646.25;;;2.11;94.74
59831;BME280;45711;50.108;13.712;2022-12-01T09:36:26;98644.84;;;2.15;93.23
59831;BME280;45711;50.108;13.712;2022-12-01T09:38:52;98634.53;;;3.10;92.20
59831;BME280;45711;50.108;13.712;2022-12-01T09:41:22;98634.84;;;2.82;88.39
59831;BME280;45711;50.108;13.712;2022-12-01T09:43:55;98634.50;;;2.72;90.85
59831;BME280;45711;50.108;13.712;2022-12-01T09:46:25;98625.69;;;2.40;89.75
59831;BME280;45711;50.108;13.712;2022-12-01T09:48:54;98634.50;;;2.72;90.13
59831;BME280;45711;50.108;13.712;2022-12-01T09:51:23;98621.78;;;2.49;90.75
59831;BME280;45711;50.108;13.712;2022-12-01T09:53:51;98631.38;;;2.37;90.30
59831;BME280;45711;50.108;13.712;2022-12-01T09:56:20;98630.75;;;2.41;89.78
59831;BME280;45711;50.108;13.712;2022-12-01T09:58:48;98625.25;;;2.43;91.00
59831;BME280;45711;50.108;13.712;2022-12-01T10:01:19;98623.00;;;2.53;89.67
59831;BME280;45711;50.108;13.712;2022-12-01T10:03:53;98616.78;;;2.79;89.73
59831;BME280;45711;50.108;13.712;2022-12-01T10:06:24;98626.41;;;2.67;90.07
59831;BME280;45711;50.108;13.712;2022-12-01T10:09:01;98617.91;;;2.96;90.49
59831;BME280;45711;50.108;13.712;2022-12-01T10:11:34;98625.31;;;2.81;89.52
59831;BME280;45711;50.108;13.712;2022-12-01T10:14:01;98626.34;;;2.73;88.13
59831;BME280;45711;50.108;13.712;2022-12-01T10:16:34;98622.97;;;2.60;88.07
59831;BME280;45711;50.108;13.712;2022-12-01T10:19:06;98631.09;;;3.03;90.06
59831;BME280;45711;50.108;13.712;2022-12-01T10:21:47;98626.72;;;2.84;88.56
59831;BME280;45711;50.108;13.712;2022-12-01T10:24:27;98625.16;;;2.69;87.71
59831;BME280;45711;50.108;13.712;2022-12-01T10:27:04;98624.09;;;2.77;88.50
59831;BME280;45711;50.108;13.712;2022-12-01T10:29:39;98613.63;;;3.02;89.20
59831;BME280;45711;50.108;13.712;2022-12-01T10:32:16;98615.38;;;2.76;86.86
59831;BME280;45711;50.108;13.712;2022-12-01T10:34:42;98627.38;;;2.72;87.20
59831;BME280;45711;50.108;13.712;2022-12-01T10:37:14;98620.09;;;3.06;88.32
59831;BME280;45711;50.108;13.712;2022-12-01T10:39:43;98621.25;;;2.78;87.42
59831;BME280;45711;50.108;13.712;2022-12-01T10:42:14;98618.59;;;2.78;88.12
59831;BME280;45711;50.108;13.712;2022-12-01T10:44:42;98616.41;;;2.75;87.47
59831;BME280;45711;50.108;13.712;2022-12-01T10:47:16;98601.25;;;3.27;89.92
59831;BME280;45711;50.108;13.712;2022-12-01T10:49:42;98613.13;;;3.43;86.56
59831;BME280;45711;50.108;13.712;2022-12-01T10:52:34;98611.63;;;2.91;85.76
59831;BME280;45711;50.108;13.712;2022-12-01T10:55:01;98608.75;;;2.99;86.65
59831;BME280;45711;50.108;13.712;2022-12-01T10:57:29;98607.53;;;3.01;88.38
59831;BME280;45711;50.108;13.712;2022-12-01T10:59:56;98602.22;;;3.01;86.41
59831;BME280;45711;50.108;13.712;2022-12-01T11:02:27;98597.59;;;2.90;86.73
59831;BME280;45711;50.108;13.712;2022-12-01T11:04:54;98597.84;;;2.82;85.43
59831;BME280;45711;50.108;13.712;2022-12-01T11:07:32;98598.66;;;2.83;86.16
59831;BME280;45711;50.108;13.712;2022-12-01T11:10:13;98606.06;;;2.67;85.96
59831;BME280;45711;50.108;13.712;2022-12-01T11:12:42;98597.91;;;2.69;85.86
59831;BME280;45711;50.108;13.712;2022-12-01T11:15:17;98600.38;;;2.64;85.79
59831;BME280;45711;50.108;13.712;2022-12-01T11:17:46;98591.34;;;2.85;84.53
59831;BME280;45711;50.108;13.712;2022-12-01T11:20:30;98589.81;;;3.02;85.16
59831;BME280;45711;50.108;13.712;2022-12-01T11:23:29;98598.56;;;2.96;85.53
59831;BME280;45711;50.108;13.712;2022-12-01T11:25:59;98599.03;;;2.93;84.81
59831;BME280;45711;50.108;13.712;2022-12-01T11:28:25;98591.09;;;3.24;86.69
59831;BME280;45711;50.108;13.712;2022-12-01T11:30:54;98584.41;;;3.47;87.03
59831;BME280;45711;50.108;13.712;2022-12-01T11:33:22;98582.47;;;3.04;85.33
59831;BME280;45711;50.108;13.712;2022-12-01T11:35:48;98574.63;;;2.91;84.99
59831;BME280;45711;50.108;13.712;2022-12-01T11:38:23;98578.59;;;3.07;84.81
59831;BME280;45711;50.108;13.712;2022-12-01T11:40:56;98573.88;;;3.40;85.66
59831;BME280;45711;50.108;13.712;2022-12-01T11:43:25;98572.88;;;3.10;84.44
59831;BME280;45711;50.108;13.712;2022-12-01T11:45:53;98571.97;;;3.47;87.34
59831;BME280;45711;50.108;13.712;2022-12-01T11:48:26;98572.94;;;3.78;86.78
59831;BME280;45711;50.108;13.712;2022-12-01T11:51:07;98570.25;;;3.60;83.18
59831;BME280;45711;50.108;13.712;2022-12-01T11:53:34;98575.56;;;3.78;84.44
59831;BME280;45711;50.108;13.712;2022-12-01T11:56:16;98574.72;;;3.84;85.68
59831;BME280;45711;50.108;13.712;2022-12-01T11:58:43;98581.13;;;3.95;84.62
59831;BME280;45711;50.108;13.712;2022-12-01T12:01:15;98579.59;;;3.62;84.87
59831;BME280;45711;50.108;13.712;2022-12-01T12:03:49;98576.72;;;4.07;85.63
59831;BME280;45711;50.108;13.712;2022-12-01T12:06:20;98576.03;;;3.75;83.19
59831;BME280;45711;50.108;13.712;2022-12-01T12:09:04;98573.53;;;3.30;82.78
59831;BME280;45711;50.108;13.712;2022-12-01T12:11:40;98563.84;;;3.49;84.93
59831;BME280;45711;50.108;13.712;2022-12-01T12:17:29;98565.31;;;3.88;85.96
59831;BME280;45711;50.108;13.712;2022-12-01T12:20:15;98565.09;;;3.65;82.21
59831;BME280;45711;50.108;13.712;2022-12-01T12:22:56;98556.59;;;3.38;83.96
59831;BME280;45711;50.108;13.712;2022-12-01T12:25:35;98552.22;;;3.50;84.37
59831;BME280;45711;50.108;13.712;2022-12-01T12:28:17;98557.63;;;3.37;83.22
59831;BME280;45711;50.108;13.712;2022-12-01T12:30:49;98552.25;;;3.43;86.41
59831;BME280;45711;50.108;13.712;2022-12-01T12:33:39;98556.69;;;3.74;84.38
59831;BME280;45711;50.108;13.712;2022-12-01T12:36:14;98556.63;;;3.56;84.53
59831;BME280;45711;50.108;13.712;2022-12-01T12:38:51;98562.13;;;3.80;84.50
59831;BME280;45711;50.108;13.712;2022-12-01T12:41:33;98551.34;;;3.56;84.07
59831;BME280;45711;50.108;13.712;2022-12-01T12:44:12;98562.25;;;4.10;85.10
59831;BME280;45711;50.108;13.712;2022-12-01T12:46:50;98562.69;;;3.63;83.43
59831;BME280;45711;50.108;13.712;2022-12-01T12:49:33;98560.56;;;3.72;83.16
59831;BME280;45711;50.108;13.712;2022-12-01T12:52:06;98561.72;;;3.58;83.74
59831;BME280;45711;50.108;13.712;2022-12-01T12:54:49;98563.03;;;3.23;83.48
59831;BME280;45711;50.108;13.712;2022-12-01T12:57:25;98572.09;;;3.59;87.11
59831;BME280;45711;50.108;13.712;2022-12-01T12:59:57;98567.72;;;3.46;83.95
59831;BME280;45711;50.108;13.712;2022-12-01T13:02:28;98567.97;;;3.63;83.30
59831;BME280;45711;50.108;13.712;2022-12-01T13:04:59;98567.09;;;3.69;85.22
59831;BME280;45711;50.108;13.712;2022-12-01T13:07:37;98567.28;;;3.74;83.90
59831;BME280;45711;50.108;13.712;2022-12-01T13:10:15;98554.88;;;3.50;83.91
59831;BME280;45711;50.108;13.712;2022-12-01T13:12:54;98556.09;;;3.47;85.55
59831;BME280;45711;50.108;13.712;2022-12-01T13:15:21;98562.44;;;3.46;85.71
59831;BME280;45711;50.108;13.712;2022-12-01T13:17:50;98558.06;;;3.34;83.57
59831;BME280;45711;50.108;13.712;2022-12-01T13:20:22;98560.97;;;3.25;85.19
59831;BME280;45711;50.108;13.712;2022-12-01T13:23:10;98555.13;;;3.17;85.50
59831;BME280;45711;50.108;13.712;2022-12-01T13:25:42;98556.00;;;3.36;83.89
59831;BME280;45711;50.108;13.712;2022-12-01T13:28:14;98565.81;;;3.28;84.46
59831;BME280;45711;50.108;13.712;2022-12-01T13:30:59;98556.97;;;3.16;84.06
59831;BME280;45711;50.108;13.712;2022-12-01T13:33:28;98557.34;;;3.20;84.28